createdAt,value
2019-04-25T00:04:38.790Z,20.47
2019-04-25T00:09:49.368Z,22.67
2019-04-25T00:14:51.816Z,29.57
2019-04-25T00:19:53.982Z,21.33
2019-04-25T00:25:17.977Z,20.87
2019-04-25T00:30:22.589Z,21.60
2019-04-25T00:35:25.249Z,22.90
2019-04-25T00:40:27.486Z,19.77
2019-04-25T00:45:29.400Z,24.57
2019-04-25T00:50:31.961Z,20.03
2019-04-25T00:55:34.579Z,20.80
2019-04-25T01:01:08.841Z,19.73
2019-04-25T01:06:12.018Z,25.57
2019-04-25T01:11:14.617Z,20.37
2019-04-25T01:16:18.343Z,24.60
2019-04-25T01:21:20.681Z,28.37
2019-04-25T01:26:23.975Z,23.43
2019-04-25T01:31:28.286Z,24.60
2019-04-25T01:36:41.075Z,18.93
2019-04-25T01:41:56.129Z,21.33
2019-04-25T01:46:58.240Z,26.00
2019-04-25T01:52:00.241Z,26.13
2019-04-25T01:57:04.366Z,24.10
2019-04-25T02:02:09.248Z,26.40
2019-04-25T02:07:11.341Z,21.83
2019-04-25T02:12:28.753Z,28.60
2019-04-25T02:17:30.580Z,28.00
2019-04-25T02:22:33.932Z,25.50
2019-04-25T02:27:36.691Z,25.33
2019-04-25T02:32:39.784Z,28.13
2019-04-25T02:37:44.868Z,23.53
2019-04-25T02:42:47.094Z,28.03
2019-04-25T02:48:17.676Z,23.40
2019-04-25T02:53:44.935Z,27.90
2019-04-25T02:58:47.375Z,25.70
2019-04-25T03:03:49.641Z,28.43
2019-04-25T03:08:54.275Z,26.13
2019-04-25T03:13:58.934Z,30.63
2019-04-25T03:19:28.292Z,30.70
2019-04-25T03:24:30.797Z,24.97
2019-04-25T03:29:34.146Z,20.70
2019-04-25T03:34:36.462Z,18.67
2019-04-25T03:39:38.605Z,25.63
2019-04-25T03:44:40.585Z,16.97
2019-04-25T03:49:43.439Z,15.77
2019-04-25T03:54:45.420Z,13.40
2019-04-25T03:59:47.236Z,14.20
2019-04-25T04:04:49.689Z,11.03
2019-04-25T04:09:53.301Z,13.37
2019-04-25T04:14:57.133Z,17.40
2019-04-25T04:20:17.492Z,11.17
2019-04-25T04:25:20.469Z,6.63
2019-04-25T04:30:24.160Z,13.57
2019-04-25T04:35:26.800Z,8.90
2019-04-25T04:40:29.662Z,9.33
2019-04-25T04:45:32.151Z,7.93
2019-04-25T04:50:34.303Z,14.53
2019-04-25T04:55:36.133Z,12.23
2019-04-25T05:00:38.396Z,10.60
2019-04-25T05:05:48.340Z,14.57
2019-04-25T05:10:50.637Z,10.80
2019-04-25T05:15:53.281Z,9.00
2019-04-25T05:20:55.543Z,11.07
2019-04-25T05:25:57.701Z,9.57
2019-04-25T05:31:07.460Z,7.57
2019-04-25T05:36:09.387Z,11.00
2019-04-25T05:41:33.777Z,4.70
2019-04-25T05:46:36.879Z,8.37
2019-04-25T05:51:39.464Z,7.40
2019-04-25T05:56:43.757Z,6.67
2019-04-25T06:01:45.809Z,5.90
2019-04-25T06:06:47.841Z,5.87
2019-04-25T06:12:00.854Z,4.97
2019-04-25T06:17:06.344Z,5.60
2019-04-25T06:22:13.109Z,5.93
2019-04-25T06:27:25.889Z,4.43
2019-04-25T06:32:28.969Z,7.63
2019-04-25T06:37:31.174Z,4.90
2019-04-25T06:42:34.719Z,4.43
2019-04-25T06:47:46.335Z,5.60
2019-04-25T06:52:48.161Z,7.97
2019-04-25T06:57:50.617Z,5.50
2019-04-25T07:02:53.234Z,4.00
2019-04-25T07:07:55.385Z,6.77
2019-04-25T07:12:57.512Z,2.13
2019-04-25T07:18:00.041Z,5.93
2019-04-25T07:23:03.622Z,3.10
2019-04-25T07:28:29.000Z,3.30
2019-04-25T07:33:40.668Z,4.47
2019-04-25T07:38:43.547Z,1.43
2019-04-25T07:43:45.996Z,4.87
2019-04-25T07:48:48.883Z,1.57
2019-04-25T07:53:51.581Z,1.20
2019-04-25T07:58:54.855Z,3.03
2019-04-25T08:03:56.836Z,2.80
2019-04-25T08:08:58.958Z,2.60
2019-04-25T08:14:24.273Z,2.57
2019-04-25T08:19:26.604Z,2.50
2019-04-25T08:24:30.742Z,2.00
2019-04-25T08:29:36.334Z,4.23
2019-04-25T08:34:37.333Z,3.87
2019-04-25T08:39:39.801Z,3.07
2019-04-25T08:44:43.735Z,2.30
2019-04-25T08:49:55.374Z,1.70
2019-04-25T08:55:08.964Z,1.40
2019-04-25T09:00:44.698Z,1.43
2019-04-25T09:05:48.446Z,1.97
2019-04-25T09:10:50.929Z,1.97
2019-04-25T09:15:54.025Z,3.00
2019-04-25T09:20:56.172Z,2.57
2019-04-25T09:25:58.792Z,5.23
2019-04-25T09:31:01.092Z,5.27
2019-04-25T09:36:04.882Z,1.40
2019-04-25T09:41:08.292Z,3.40
2019-04-25T09:46:15.792Z,1.83
2019-04-25T09:51:25.180Z,4.20
2019-04-25T09:56:38.327Z,3.97
2019-04-25T10:01:43.994Z,2.80
2019-04-25T10:06:47.557Z,6.80
2019-04-25T10:11:49.944Z,5.60
2019-04-25T10:16:53.783Z,2.67
2019-04-25T10:21:56.552Z,2.37
2019-04-25T10:26:59.133Z,5.57
2019-04-25T10:32:02.157Z,1.83
2019-04-25T10:37:05.067Z,2.10
2019-04-25T10:42:07.249Z,2.70
2019-04-25T10:47:09.431Z,4.57
2019-04-25T10:52:12.072Z,1.90
2019-04-25T10:57:14.972Z,3.20
2019-04-25T11:02:16.874Z,7.47
2019-04-25T11:07:21.368Z,2.37
2019-04-25T11:12:23.588Z,2.03
2019-04-25T11:17:26.448Z,1.87
2019-04-25T11:22:28.614Z,1.97
2019-04-25T11:27:31.071Z,4.00
2019-04-25T11:32:33.899Z,2.83
2019-04-25T11:37:36.833Z,4.23
2019-04-25T11:42:39.238Z,1.30
2019-04-25T11:47:41.662Z,3.77
2019-04-25T11:52:43.785Z,2.37
2019-04-25T11:57:49.869Z,1.50
2019-04-25T12:02:50.809Z,3.40
2019-04-25T12:07:53.276Z,3.20
2019-04-25T12:12:55.908Z,1.33
2019-04-25T12:17:59.422Z,2.10
2019-04-25T12:23:08.069Z,2.07
2019-04-25T12:28:05.949Z,3.67
2019-04-25T12:33:18.382Z,2.20
2019-04-25T12:38:11.992Z,1.27
2019-04-25T12:43:15.455Z,3.77
2019-04-25T12:48:18.908Z,3.00
2019-04-25T12:53:23.508Z,2.27
2019-04-25T12:58:26.796Z,1.80
2019-04-25T13:03:28.863Z,1.23
2019-04-25T13:08:31.202Z,2.80
2019-04-25T13:13:34.008Z,2.90
2019-04-25T13:18:36.121Z,1.03
2019-04-25T13:23:39.675Z,3.33
2019-04-25T13:29:05.206Z,0.73
2019-04-25T13:34:11.625Z,2.23
2019-04-25T13:39:16.458Z,3.43
2019-04-25T13:44:18.578Z,1.97
2019-04-25T13:49:20.398Z,1.50
2019-04-25T13:54:23.842Z,2.33
2019-04-25T13:59:26.156Z,2.27
2019-04-25T14:04:29.497Z,2.73
2019-04-25T14:09:34.555Z,1.70
2019-04-25T14:14:36.888Z,0.87
2019-04-25T14:20:07.199Z,5.03
2019-04-25T14:25:11.649Z,2.90
2019-04-25T14:30:15.997Z,1.13
2019-04-25T14:35:21.615Z,1.43
2019-04-25T14:40:24.714Z,2.50
2019-04-25T14:45:27.173Z,3.87
2019-04-25T14:50:29.995Z,2.30
2019-04-25T14:55:59.744Z,1.00
2019-04-25T15:01:01.723Z,5.37
2019-04-25T15:06:04.018Z,1.50
2019-04-25T15:11:06.140Z,1.37
2019-04-25T15:16:08.237Z,1.97
2019-04-25T15:21:10.439Z,1.30
2019-04-25T15:26:12.702Z,1.87
2019-04-25T15:31:15.700Z,5.00
2019-04-25T15:36:27.218Z,3.50
2019-04-25T15:41:44.825Z,1.20
2019-04-25T15:46:48.569Z,3.00
2019-04-25T15:51:50.596Z,1.40
2019-04-25T15:56:52.536Z,4.93
2019-04-25T16:01:54.476Z,2.47
2019-04-25T16:06:56.629Z,1.70
2019-04-25T16:12:00.331Z,1.97
2019-04-25T16:17:03.326Z,2.10
2019-04-25T16:22:06.790Z,3.98
2019-04-25T16:27:11.189Z,2.27
2019-04-25T16:32:20.811Z,3.37
2019-04-25T16:37:22.316Z,4.00
2019-04-25T16:42:25.707Z,2.53
2019-04-25T16:47:29.993Z,4.33
2019-04-25T16:52:33.820Z,3.03
2019-04-25T16:57:37.038Z,3.70
2019-04-25T17:02:42.024Z,3.98
2019-04-25T17:07:44.209Z,3.98
2019-04-25T17:12:46.164Z,2.10
2019-04-25T17:18:02.911Z,3.47
2019-04-25T17:23:05.211Z,8.13
2019-04-25T17:28:07.578Z,5.03
2019-04-25T17:33:20.745Z,8.53
2019-04-25T17:38:33.461Z,3.23
2019-04-25T17:43:36.379Z,4.60
2019-04-25T17:48:38.328Z,6.97
2019-04-25T17:53:41.264Z,8.97
2019-04-25T17:58:44.026Z,3.33
2019-04-25T18:03:45.840Z,3.53
2019-04-25T18:08:47.739Z,6.50
2019-04-25T18:13:49.864Z,3.43
2019-04-25T18:19:11.751Z,7.00
2019-04-25T18:24:32.131Z,5.87
2019-04-25T18:29:35.038Z,4.90
2019-04-25T18:34:47.024Z,3.80
2019-04-25T18:39:56.307Z,3.83
2019-04-25T18:44:59.006Z,4.67
2019-04-25T18:50:01.092Z,3.63
2019-04-25T18:55:11.528Z,6.13
2019-04-25T19:00:37.799Z,7.37
2019-04-25T19:05:47.900Z,4.20
2019-04-25T19:10:50.014Z,5.97
2019-04-25T19:15:52.028Z,6.33
2019-04-25T19:20:54.081Z,7.73
2019-04-25T19:25:56.144Z,5.97
2019-04-25T19:30:58.321Z,2.93
2019-04-25T19:36:00.454Z,5.60
2019-04-25T19:41:14.007Z,5.20
2019-04-25T19:46:16.333Z,5.40
2019-04-25T19:51:18.409Z,3.40
2019-04-25T19:56:20.577Z,4.17
2019-04-25T20:01:23.273Z,8.13
2019-04-25T20:06:45.427Z,4.60
2019-04-25T20:11:49.685Z,6.03
2019-04-25T20:16:51.975Z,5.20
2019-04-25T20:21:54.177Z,3.50
2019-04-25T20:26:56.231Z,7.47
2019-04-25T20:31:58.217Z,10.87
2019-04-25T20:37:01.169Z,6.00
2019-04-25T20:42:04.273Z,5.47
2019-04-25T20:47:06.421Z,2.60
2019-04-25T20:52:08.328Z,2.20
2019-04-25T20:57:10.545Z,4.17
2019-04-25T21:02:12.852Z,8.83
2019-04-25T21:07:17.633Z,4.13
2019-04-25T21:12:19.629Z,4.07
2019-04-25T21:17:47.241Z,3.93
2019-04-25T21:22:50.473Z,6.67
2019-04-25T21:27:52.950Z,3.37
2019-04-25T21:32:55.650Z,2.93
2019-04-25T21:37:57.911Z,5.37
2019-04-25T21:43:06.752Z,8.13
2019-04-25T21:48:09.528Z,8.43
2019-04-25T21:53:12.073Z,5.13
2019-04-25T21:58:15.099Z,2.30
2019-04-25T22:03:19.784Z,3.00
2019-04-25T22:08:22.472Z,4.27
2019-04-25T22:13:25.399Z,2.47
2019-04-25T22:18:28.121Z,3.40
2019-04-25T22:23:31.250Z,5.47
2019-04-25T22:28:33.389Z,3.93
2019-04-25T22:33:48.588Z,5.43
2019-04-25T22:39:19.764Z,5.50
2019-04-25T22:44:22.065Z,3.23
2019-04-25T22:49:25.241Z,5.20
2019-04-25T22:54:28.755Z,3.37
2019-04-25T22:59:30.748Z,6.07
2019-04-25T23:05:12.095Z,4.27
2019-04-25T23:10:12.345Z,5.80
2019-04-25T23:15:15.172Z,3.63
2019-04-25T23:20:17.145Z,4.10
2019-04-25T23:25:24.419Z,3.87
2019-04-25T23:30:32.585Z,7.57
2019-04-25T23:35:34.988Z,4.10
2019-04-25T23:40:37.873Z,4.43
2019-04-25T23:45:40.001Z,5.03
2019-04-25T23:50:42.840Z,3.90
2019-04-25T23:55:44.846Z,5.27
